createdAt,value
2022-09-01T00:00:50.679Z,4.28
2022-09-01T00:05:50.216Z,4.78
2022-09-01T00:10:50.141Z,5.05
2022-09-01T00:15:48.754Z,5.57
2022-09-01T00:20:47.284Z,4.70
2022-09-01T00:25:45.954Z,4.88
2022-09-01T00:30:46.016Z,5.60
2022-09-01T00:35:44.315Z,5.32
2022-09-01T00:40:42.639Z,4.88
2022-09-01T00:45:42.081Z,5.53
2022-09-01T00:50:42.731Z,4.30
2022-09-01T00:55:41.232Z,5.00
2022-09-01T01:00:41.944Z,4.35
2022-09-01T01:05:48.909Z,4.68
2022-09-01T01:10:47.120Z,4.32
2022-09-01T01:15:45.649Z,4.40
2022-09-01T01:21:04.156Z,4.88
2022-09-01T01:26:04.545Z,4.95
2022-09-01T01:31:06.246Z,5.25
2022-09-01T01:36:08.021Z,4.95
2022-09-01T01:41:07.758Z,5.40
2022-09-01T01:46:08.393Z,5.88
2022-09-01T01:51:10.611Z,5.95
2022-09-01T01:56:11.689Z,5.22
2022-09-01T02:01:11.970Z,4.55
2022-09-01T02:06:12.209Z,5.53
2022-09-01T02:11:17.363Z,5.13
2022-09-01T02:16:17.081Z,4.97
2022-09-01T02:21:19.670Z,4.97
2022-09-01T02:26:23.874Z,5.47
2022-09-01T02:31:24.847Z,4.47
2022-09-01T02:36:25.355Z,5.43
2022-09-01T02:41:25.370Z,5.20
2022-09-01T02:46:24.541Z,4.97
2022-09-01T02:51:25.835Z,4.72
2022-09-01T02:56:27.709Z,4.90
2022-09-01T03:01:30.510Z,5.25
2022-09-01T03:06:34.414Z,4.73
2022-09-01T03:11:35.778Z,5.13
2022-09-01T03:16:34.497Z,5.35
2022-09-01T03:21:33.121Z,5.10
2022-09-01T03:26:32.018Z,5.13
2022-09-01T03:31:32.098Z,5.30
2022-09-01T03:36:34.121Z,5.10
2022-09-01T03:41:32.818Z,4.90
2022-09-01T03:46:36.886Z,5.32
2022-09-01T03:51:35.923Z,5.97
2022-09-01T03:56:34.258Z,5.05
2022-09-01T04:01:34.954Z,6.22
2022-09-01T04:06:33.825Z,5.70
2022-09-01T04:11:32.427Z,6.13
2022-09-01T04:16:49.779Z,7.57
2022-09-01T04:21:51.780Z,5.82
2022-09-01T04:26:50.386Z,5.72
2022-09-01T04:31:53.682Z,6.10
2022-09-01T04:36:54.666Z,5.95
2022-09-01T04:41:54.261Z,5.55
2022-09-01T04:46:52.580Z,5.50
2022-09-01T04:51:53.913Z,5.70
2022-09-01T04:56:55.530Z,6.27
2022-09-01T05:01:55.734Z,5.20
2022-09-01T05:06:59.901Z,5.63
2022-09-01T05:12:12.767Z,5.70
2022-09-01T05:17:17.317Z,5.47
2022-09-01T05:22:16.450Z,5.78
2022-09-01T05:27:22.937Z,6.90
2022-09-01T05:32:21.987Z,13.02
2022-09-01T05:37:20.299Z,8.30
2022-09-01T05:42:18.575Z,12.20
2022-09-01T05:47:20.831Z,9.55
2022-09-01T05:52:26.572Z,7.40
2022-09-01T05:57:40.949Z,6.80
2022-09-01T06:02:41.231Z,7.00
2022-09-01T06:07:42.999Z,5.60
2022-09-01T06:12:43.244Z,7.47
2022-09-01T06:17:44.143Z,6.72
2022-09-01T06:22:43.939Z,6.38
2022-09-01T06:27:43.378Z,6.45
2022-09-01T06:32:44.960Z,5.32
2022-09-01T06:37:44.488Z,7.63
2022-09-01T06:42:48.437Z,7.78
2022-09-01T06:47:51.139Z,7.05
2022-09-01T06:58:30.181Z,5.57
2022-09-01T07:03:30.031Z,5.57
2022-09-01T07:14:16.449Z,5.10
2022-09-01T07:19:16.383Z,5.70
2022-09-01T07:24:29.379Z,5.88
2022-09-01T07:29:57.388Z,5.32
2022-09-01T07:34:57.257Z,6.63
2022-09-01T07:45:47.712Z,6.55
2022-09-01T07:56:12.297Z,7.00
2022-09-01T08:01:18.994Z,8.98
2022-09-01T08:06:22.583Z,9.10
2022-09-01T08:11:40.083Z,8.55
2022-09-01T08:16:52.034Z,5.63
2022-09-01T08:21:52.575Z,5.72
2022-09-01T08:26:58.499Z,7.82
2022-09-01T08:31:59.248Z,8.15
2022-09-01T08:36:59.032Z,7.60
2022-09-01T08:42:01.023Z,8.85
2022-09-01T08:47:04.129Z,8.50
2022-09-01T08:52:07.828Z,12.95
2022-09-01T08:57:07.933Z,13.30
2022-09-01T09:02:50.204Z,11.35
2022-09-01T09:08:06.652Z,13.35
2022-09-01T09:13:09.382Z,8.63
2022-09-01T09:18:34.298Z,10.45
2022-09-01T09:23:33.361Z,11.50
2022-09-01T09:28:31.649Z,7.05
2022-09-01T09:33:51.231Z,17.35
2022-09-01T09:39:04.505Z,13.60
2022-09-01T09:44:05.401Z,13.90
2022-09-01T09:49:11.200Z,24.33
2022-09-01T09:54:14.713Z,18.58
2022-09-01T09:59:39.823Z,20.83
2022-09-01T10:04:43.101Z,24.92
2022-09-01T10:09:42.720Z,29.05
2022-09-01T10:14:53.308Z,30.45
2022-09-01T10:19:54.343Z,21.63
2022-09-01T10:24:54.056Z,21.98
2022-09-01T10:30:12.205Z,46.08
2022-09-01T10:35:13.487Z,39.65
2022-09-01T10:40:20.521Z,34.75
2022-09-01T10:45:23.208Z,38.90
2022-09-01T10:50:25.836Z,37.15
2022-09-01T10:55:26.485Z,20.83
2022-09-01T11:06:14.377Z,10.45
2022-09-01T11:11:22.742Z,8.77
2022-09-01T11:16:46.688Z,6.75
2022-09-01T11:21:45.780Z,5.38
2022-09-01T11:26:49.077Z,5.43
2022-09-01T11:31:48.292Z,5.93
2022-09-01T11:36:48.765Z,4.63
2022-09-01T11:41:55.824Z,5.07
2022-09-01T11:46:59.487Z,5.43
2022-09-01T11:52:00.289Z,4.97
2022-09-01T11:57:01.404Z,5.13
2022-09-01T12:02:00.150Z,5.72
2022-09-01T12:07:00.621Z,4.90
2022-09-01T12:12:01.671Z,4.30
2022-09-01T12:17:01.500Z,4.50
2022-09-01T12:22:02.452Z,7.07
2022-09-01T12:27:02.424Z,4.00
2022-09-01T12:32:01.455Z,5.88
2022-09-01T12:37:07.969Z,5.20
2022-09-01T12:42:09.553Z,5.85
2022-09-01T12:47:08.920Z,5.13
2022-09-01T12:52:12.064Z,5.10
2022-09-01T12:57:25.150Z,5.32
2022-09-01T13:02:35.004Z,5.88
2022-09-01T13:07:33.535Z,4.47
2022-09-01T13:12:33.317Z,4.20
2022-09-01T13:17:31.593Z,6.82
2022-09-01T13:22:30.008Z,5.03
2022-09-01T13:27:28.524Z,6.22
2022-09-01T13:32:28.343Z,5.85
2022-09-01T13:37:26.732Z,7.50
2022-09-01T13:42:27.034Z,4.43
2022-09-01T13:47:30.110Z,4.57
2022-09-01T13:52:29.870Z,5.07
2022-09-01T13:57:28.379Z,4.38
2022-09-01T14:02:36.883Z,5.75
2022-09-01T14:07:35.274Z,4.15
2022-09-01T14:12:33.576Z,5.93
2022-09-01T14:17:32.017Z,5.40
2022-09-01T14:22:35.269Z,4.60
2022-09-01T14:27:36.602Z,4.53
2022-09-01T14:32:35.513Z,4.88
2022-09-01T14:37:35.217Z,4.18
2022-09-01T14:42:33.905Z,5.60
2022-09-01T14:47:33.183Z,3.95
2022-09-01T14:52:31.799Z,4.78
2022-09-01T14:57:37.532Z,4.55
2022-09-01T15:02:36.692Z,4.70
2022-09-01T15:07:35.092Z,4.32
2022-09-01T15:12:34.821Z,5.25
2022-09-01T15:17:33.254Z,4.05
2022-09-01T15:22:31.557Z,5.95
2022-09-01T15:27:29.881Z,4.00
2022-09-01T15:32:29.591Z,4.10
2022-09-01T15:37:27.905Z,3.85
2022-09-01T15:42:26.286Z,4.38
2022-09-01T15:47:24.632Z,4.53
2022-09-01T15:52:24.820Z,4.53
2022-09-01T15:57:23.167Z,5.22
2022-09-01T16:02:23.659Z,4.68
2022-09-01T16:07:22.157Z,5.18
2022-09-01T16:12:21.834Z,3.97
2022-09-01T16:17:23.898Z,4.00
2022-09-01T16:22:23.771Z,3.92
2022-09-01T16:27:34.331Z,5.20
2022-09-01T16:32:34.058Z,5.85
2022-09-01T16:37:39.748Z,4.68
2022-09-01T16:42:43.075Z,4.43
2022-09-01T16:47:50.213Z,4.93
2022-09-01T16:53:02.862Z,5.10
2022-09-01T16:58:05.211Z,7.05
2022-09-01T17:03:09.038Z,5.45
2022-09-01T17:08:23.072Z,5.20
2022-09-01T17:13:24.599Z,4.85
2022-09-01T17:18:31.085Z,5.32
2022-09-01T17:23:31.884Z,5.90
2022-09-01T17:28:34.064Z,5.63
2022-09-01T17:33:36.394Z,7.05
2022-09-01T17:38:40.509Z,5.03
2022-09-01T17:43:45.707Z,5.10
2022-09-01T17:48:46.933Z,5.63
2022-09-01T17:53:50.019Z,6.80
2022-09-01T17:58:53.596Z,5.85
2022-09-01T18:04:20.736Z,5.85
2022-09-01T18:09:21.633Z,6.50
2022-09-01T18:14:22.910Z,6.47
2022-09-01T18:19:23.323Z,8.15
2022-09-01T18:24:22.777Z,5.22
2022-09-01T18:29:25.147Z,5.93
2022-09-01T18:34:28.941Z,6.53
2022-09-01T18:44:34.840Z,6.10
2022-09-01T18:49:36.717Z,5.30
2022-09-01T18:54:40.417Z,5.63
2022-09-01T18:59:48.706Z,5.47
2022-09-01T19:04:47.386Z,5.07
2022-09-01T19:09:52.373Z,4.53
2022-09-01T19:14:55.563Z,5.53
2022-09-01T19:19:57.667Z,5.27
2022-09-01T19:25:19.366Z,4.80
2022-09-01T19:30:19.247Z,5.65
2022-09-01T19:35:19.169Z,5.15
2022-09-01T19:40:24.643Z,5.20
2022-09-01T19:45:29.315Z,4.97
2022-09-01T19:50:32.120Z,4.75
2022-09-01T19:55:32.356Z,4.30
2022-09-01T20:00:39.094Z,4.30
2022-09-01T20:05:40.805Z,3.72
2022-09-01T20:10:56.189Z,4.55
2022-09-01T20:15:59.235Z,5.00
2022-09-01T20:21:01.370Z,5.15
2022-09-01T20:26:04.001Z,4.50
2022-09-01T20:31:06.436Z,3.95
2022-09-01T20:36:08.205Z,3.50
2022-09-01T20:41:12.925Z,3.72
2022-09-01T20:46:12.643Z,2.85
2022-09-01T20:51:12.887Z,2.45
2022-09-01T20:56:16.377Z,2.08
2022-09-01T21:01:19.417Z,2.38
2022-09-01T21:06:22.667Z,2.43
2022-09-01T21:11:24.895Z,1.97
2022-09-01T21:16:31.838Z,2.30
2022-09-01T21:21:34.292Z,2.17
2022-09-01T21:26:32.673Z,2.35
2022-09-01T21:31:33.509Z,2.20
2022-09-01T21:36:31.879Z,2.70
2022-09-01T21:41:30.194Z,2.40
2022-09-01T21:46:28.605Z,3.28
2022-09-01T21:51:28.311Z,3.55
2022-09-01T21:56:27.378Z,3.97
2022-09-01T22:01:31.876Z,4.38
2022-09-01T22:06:31.995Z,4.65
2022-09-01T22:11:30.460Z,4.43
2022-09-01T22:16:28.795Z,4.40
2022-09-01T22:21:27.256Z,4.60
2022-09-01T22:26:27.928Z,4.45
2022-09-01T22:31:27.032Z,4.20
2022-09-01T22:36:27.441Z,4.20
2022-09-01T22:41:28.229Z,4.60
2022-09-01T22:46:26.919Z,5.18
2022-09-01T22:51:25.254Z,4.88
2022-09-01T22:56:25.133Z,5.32
2022-09-01T23:01:26.347Z,5.18
2022-09-01T23:06:27.907Z,6.13
2022-09-01T23:11:27.123Z,4.75
2022-09-01T23:16:27.553Z,4.55
2022-09-01T23:21:27.037Z,4.53
2022-09-01T23:26:25.401Z,4.50
2022-09-01T23:31:25.723Z,4.40
2022-09-01T23:36:26.293Z,5.07
2022-09-01T23:41:28.863Z,5.30
2022-09-01T23:46:27.737Z,4.32
2022-09-01T23:51:27.659Z,5.00
2022-09-01T23:56:27.454Z,4.65
